Time;durP1;ratioP1;P1;durP2;ratioP2;P2;SDS_P1;SDS_P2;PMS_P1;PMS_P2;Temp;Humidity;BMP_temperature;BMP_pressure;BME280_temperature;BME280_humidity;BME280_pressure;Samples;Min_cycle;Max_cycle;Signal;HPM_P1;HPM_P2
2022/12/01 00:02:11;;;;;;;;;53.25;37.75;;;;;9.48;61.02;101902.97;5075392;27;45389;-36
2022/12/01 00:04:37;;;;;;;;;44.75;33.50;;;;;9.42;60.96;101900.38;5092288;27;70072;-36
2022/12/01 00:07:02;;;;;;;;;47.50;35.50;;;;;9.37;61.11;101900.41;5071461;27;64112;-36
2022/12/01 00:12:11;;;;;;;;;41.75;34.00;;;;;9.28;61.19;101893.47;5087374;27;45490;-36
2022/12/01 00:14:36;;;;;;;;;50.25;36.50;;;;;9.24;61.52;101889.13;5073820;27;72926;-36
2022/12/01 00:17:03;;;;;;;;;39.50;32.25;;;;;9.21;61.78;101889.13;5068950;28;61174;-36
2022/12/01 00:19:29;;;;;;;;;50.75;32.50;;;;;9.13;61.77;101878.69;5079546;27;45225;-36
2022/12/01 00:21:54;;;;;;;;;49.75;34.75;;;;;9.11;61.48;101890.88;5072648;27;56155;-36
2022/12/01 00:24:22;;;;;;;;;50.50;36.25;;;;;9.07;61.64;101889.16;5074818;27;62281;-37
2022/12/01 00:26:47;;;;;;;;;48.75;36.75;;;;;9.07;61.46;101901.38;5076804;27;45295;-36
2022/12/01 00:29:13;;;;;;;;;50.25;37.25;;;;;9.06;61.25;101897.00;5078886;28;45511;-37
2022/12/01 00:31:38;;;;;;;;;46.25;33.25;;;;;9.04;61.38;101907.44;5079781;27;45294;-36
2022/12/01 00:34:03;;;;;;;;;50.50;36.25;;;;;9.01;61.20;101899.63;5069440;27;59434;-36
2022/12/01 00:36:29;;;;;;;;;53.50;33.75;;;;;8.99;61.44;101890.91;5065144;28;45557;-37
2022/12/01 00:38:55;;;;;;;;;49.50;36.25;;;;;8.96;61.37;101897.88;5079816;27;61011;-37
2022/12/01 00:41:21;;;;;;;;;55.00;37.00;;;;;8.91;61.30;101896.16;5063941;28;45613;-36
2022/12/01 00:43:46;;;;;;;;;42.00;35.50;;;;;8.88;61.31;101892.69;5067844;27;46200;-36
2022/12/01 00:46:12;;;;;;;;;55.00;35.75;;;;;8.88;61.30;101900.50;5079770;27;48925;-36
2022/12/01 00:48:37;;;;;;;;;50.75;33.50;;;;;8.85;61.26;101898.78;5072949;27;57955;-36
2022/12/01 00:51:03;;;;;;;;;48.25;34.00;;;;;8.82;61.38;101901.41;5066500;28;45942;-36
2022/12/01 00:53:28;;;;;;;;;50.25;31.75;;;;;8.84;61.53;101896.19;5076283;27;46776;-36
2022/12/01 00:55:54;;;;;;;;;51.50;36.00;;;;;8.85;61.46;101893.56;5071991;27;70923;-36
2022/12/01 00:58:20;;;;;;;;;45.50;30.50;;;;;8.86;61.47;101890.06;5074824;27;45470;-36
2022/12/01 01:00:45;;;;;;;;;58.50;39.75;;;;;8.83;61.01;101895.28;5071610;28;45204;-36
2022/12/01 01:03:11;;;;;;;;;51.25;36.50;;;;;8.83;61.21;101899.66;5071520;27;71816;-36
2022/12/01 01:05:37;;;;;;;;;45.25;34.00;;;;;8.81;61.06;101894.41;5066850;27;49482;-36
2022/12/01 01:08:09;;;;;;;;;52.50;37.50;;;;;8.81;61.20;101893.56;5068843;27;45485;-36
2022/12/01 01:10:39;;;;;;;;;56.50;38.50;;;;;8.80;61.22;101887.47;5072075;28;45269;-36
2022/12/01 01:13:05;;;;;;;;;53.00;37.00;;;;;8.79;61.24;101896.16;5071299;27;46710;-36
2022/12/01 01:15:30;;;;;;;;;55.75;37.75;;;;;8.83;60.97;101894.44;5077417;27;45358;-36
2022/12/01 01:17:55;;;;;;;;;53.75;36.75;;;;;8.83;61.04;101895.28;5069713;27;45536;-37
2022/12/01 01:20:20;;;;;;;;;52.50;35.50;;;;;8.81;60.97;101899.63;5072883;28;58544;-37
2022/12/01 01:22:46;;;;;;;;;50.50;35.25;;;;;8.79;61.22;101904.00;5071190;28;64679;-36
2022/12/01 01:25:11;;;;;;;;;56.25;37.50;;;;;8.78;61.06;101897.03;5066422;27;53228;-36
2022/12/01 01:27:37;;;;;;;;;47.50;34.75;;;;;8.77;61.17;101900.53;5066681;28;45368;-37
2022/12/01 01:30:02;;;;;;;;;48.50;35.75;;;;;8.75;61.25;101897.06;5069481;28;45478;-37
2022/12/01 01:32:28;;;;;;;;;54.00;36.00;;;;;8.73;61.15;101894.44;5084232;27;47273;-37
2022/12/01 01:34:53;;;;;;;;;44.75;35.25;;;;;8.73;61.22;101904.03;5068603;27;69530;-41
2022/12/01 01:37:18;;;;;;;;;49.00;34.75;;;;;8.70;61.06;101904.88;5073099;27;57210;-37
2022/12/01 01:39:44;;;;;;;;;54.25;36.00;;;;;8.68;61.21;101903.16;5065459;27;61681;-36
2022/12/01 01:42:13;;;;;;;;;47.00;31.75;;;;;8.65;61.32;101916.19;5062863;28;46085;-37
2022/12/01 01:44:47;;;;;;;;;47.25;33.75;;;;;8.60;61.26;101920.53;5071066;27;45439;-37
2022/12/01 01:47:13;;;;;;;;;40.75;30.75;;;;;8.55;61.38;101924.03;5067485;28;45383;-37
2022/12/01 01:49:39;;;;;;;;;39.75;34.00;;;;;8.52;61.47;101923.16;5078372;28;45437;-37
2022/12/01 01:52:05;;;;;;;;;46.50;36.75;;;;;8.49;61.36;101928.34;5069649;27;75150;-37
2022/12/01 01:54:35;;;;;;;;;53.00;37.25;;;;;8.46;61.64;101934.41;5066981;27;72691;-36
2022/12/01 01:57:01;;;;;;;;;44.25;35.75;;;;;8.45;61.53;101927.47;5072510;28;45374;-37
2022/12/01 01:59:28;;;;;;;;;43.25;34.50;;;;;8.45;61.87;101917.06;5074751;28;45406;-37
2022/12/01 02:02:12;;;;;;;;;47.50;35.50;;;;;8.47;61.59;101923.13;5067535;27;45540;-36
2022/12/01 02:04:44;;;;;;;;;48.75;34.75;;;;;8.50;61.40;101925.75;5082469;27;70250;-36
2022/12/01 02:07:11;;;;;;;;;47.50;33.25;;;;;8.51;61.37;101924.00;5072121;27;45572;-37
2022/12/01 02:09:37;;;;;;;;;50.75;36.50;;;;;8.51;61.49;101914.44;5083861;27;45708;-36
2022/12/01 02:12:11;;;;;;;;;53.00;37.25;;;;;8.50;61.30;101907.50;5063290;27;62128;-36
2022/12/01 02:14:55;;;;;;;;;46.25;32.00;;;;;8.50;61.37;101911.84;5077632;27;45979;-37
2022/12/01 02:18:04;;;;;;;;;48.50;35.00;;;;;8.48;61.37;101903.13;5061839;28;45379;-36
2022/12/01 02:20:34;;;;;;;;;44.50;34.00;;;;;8.50;61.40;101911.84;5067968;27;45342;-37
2022/12/01 02:23:37;;;;;;;;;41.75;33.75;;;;;8.47;61.43;101912.69;5080487;27;46158;-36
2022/12/01 02:26:30;;;;;;;;;54.75;37.50;;;;;8.47;61.44;101912.69;5086872;27;45850;-37
2022/12/01 02:29:11;;;;;;;;;46.75;34.00;;;;;8.48;61.33;101898.78;5075576;28;45763;-37
2022/12/01 02:31:43;;;;;;;;;41.75;34.00;;;;;8.50;61.43;101906.63;5070772;28;45511;-37
2022/12/01 02:34:29;;;;;;;;;46.25;36.75;;;;;8.50;61.43;101912.72;5083006;27;45409;-36
2022/12/01 02:37:23;;;;;;;;;56.50;36.00;;;;;8.50;61.37;101901.41;5075059;27;45310;-37
2022/12/01 02:40:18;;;;;;;;;55.25;37.00;;;;;8.50;61.29;101906.63;5074100;27;45620;-37
2022/12/01 02:43:04;;;;;;;;;44.25;35.00;;;;;8.53;61.30;101904.00;5069386;27;45583;-36
2022/12/01 02:45:48;;;;;;;;;47.00;36.00;;;;;8.54;61.31;101901.41;5065175;28;46878;-36
2022/12/01 02:48:19;;;;;;;;;51.50;33.75;;;;;8.57;61.48;101900.53;5083010;27;45533;-36
2022/12/01 02:50:45;;;;;;;;;45.00;36.75;;;;;8.58;61.28;101897.03;5074674;27;45585;-37
2022/12/01 02:53:15;;;;;;;;;40.25;30.75;;;;;8.59;61.24;101909.22;5085635;27;55379;-37
2022/12/01 02:56:09;;;;;;;;;44.75;33.50;;;;;8.59;61.21;101904.00;5076377;28;45997;-37
2022/12/01 02:58:34;;;;;;;;;53.50;37.50;;;;;8.60;61.15;101899.66;5079850;27;45615;-37
2022/12/01 03:01:12;;;;;;;;;48.75;33.75;;;;;8.61;61.17;101901.41;5068514;28;65694;-36
2022/12/01 03:03:58;;;;;;;;;52.00;33.50;;;;;8.62;61.06;101896.16;5075421;27;45532;-36
2022/12/01 03:06:36;;;;;;;;;49.75;32.50;;;;;8.61;61.09;101893.59;5072197;28;45385;-36
2022/12/01 03:09:21;;;;;;;;;39.75;31.50;;;;;8.60;61.00;101889.22;5081382;27;45381;-37
2022/12/01 03:12:24;;;;;;;;;51.75;33.00;;;;;8.56;61.18;101888.34;5090521;27;45425;-36
2022/12/01 03:15:17;;;;;;;;;36.75;33.00;;;;;8.53;61.12;101896.16;5077552;27;45354;-36
2022/12/01 03:17:48;;;;;;;;;47.50;33.75;;;;;8.50;61.06;101881.41;5072054;28;47404;-36
2022/12/01 03:20:26;;;;;;;;;45.75;30.75;;;;;8.50;61.28;101891.84;5051931;28;46363;-36
2022/12/01 03:22:58;;;;;;;;;49.25;34.50;;;;;8.47;61.52;101885.75;5071872;27;45520;-36
2022/12/01 03:25:25;;;;;;;;;37.25;28.25;;;;;8.43;61.52;101892.72;5079124;28;45325;-37
2022/12/01 03:27:55;;;;;;;;;45.00;31.50;;;;;8.42;61.53;101890.06;5074164;28;46243;-36
2022/12/01 03:30:22;;;;;;;;;45.25;33.50;;;;;8.39;61.69;101887.44;5085544;27;46024;-36
2022/12/01 03:32:56;;;;;;;;;40.00;33.50;;;;;8.37;61.59;101884.81;5067866;27;45585;-36
2022/12/01 03:35:26;;;;;;;;;49.50;35.50;;;;;8.35;61.69;101895.25;5074655;27;45452;-37
2022/12/01 03:38:27;;;;;;;;;44.00;30.50;;;;;8.33;61.76;101898.75;5069315;27;46905;-36
2022/12/01 03:40:57;;;;;;;;;40.25;28.75;;;;;8.31;61.90;101897.88;5076769;27;45663;-37
2022/12/01 03:43:34;;;;;;;;;44.00;33.75;;;;;8.28;61.86;101897.88;5064144;27;45416;-36
2022/12/01 03:46:09;;;;;;;;;42.75;31.25;;;;;8.27;61.88;101893.50;5067090;28;45332;-37
2022/12/01 03:48:36;;;;;;;;;46.50;37.00;;;;;8.27;61.87;101903.94;5085626;27;46127;-37
2022/12/01 03:51:03;;;;;;;;;51.00;34.75;;;;;8.26;62.06;101889.19;5069068;27;45374;-37
2022/12/01 03:53:37;;;;;;;;;46.75;36.25;;;;;8.26;61.93;101894.38;5068142;27;45450;-37
2022/12/01 03:56:05;;;;;;;;;49.75;35.75;;;;;8.24;61.97;101889.16;5078542;28;45538;-37
2022/12/01 03:58:37;;;;;;;;;48.00;34.00;;;;;8.24;62.15;101893.53;5071405;27;47074;-37
2022/12/01 04:01:03;;;;;;;;;44.25;30.75;;;;;8.23;62.07;101890.03;5075704;28;45384;-37
2022/12/01 04:03:29;;;;;;;;;42.75;34.25;;;;;8.18;62.02;101890.03;5070986;27;45280;-37
2022/12/01 04:05:54;;;;;;;;;47.25;32.00;;;;;8.14;62.31;101890.91;5077224;27;61618;-37
2022/12/01 04:08:20;;;;;;;;;47.25;35.75;;;;;8.11;62.45;101885.69;5070472;28;46112;-37
2022/12/01 04:10:45;;;;;;;;;38.25;32.00;;;;;8.09;62.49;101884.81;5071990;28;45508;-37
2022/12/01 04:13:21;;;;;;;;;43.50;34.25;;;;;8.09;62.51;101881.31;5075500;27;63068;-37
2022/12/01 04:15:46;;;;;;;;;38.25;28.25;;;;;8.09;62.26;101868.28;5072523;27;45278;-37
2022/12/01 04:18:11;;;;;;;;;51.00;31.00;;;;;8.11;62.36;101876.97;5071122;27;46300;-37
2022/12/01 04:20:37;;;;;;;;;50.50;33.75;;;;;8.12;62.42;101883.94;5069673;28;45671;-37
2022/12/01 04:23:02;;;;;;;;;45.00;29.75;;;;;8.11;62.40;101879.56;5076185;27;63297;-37
2022/12/01 04:25:27;;;;;;;;;44.00;33.25;;;;;8.08;62.51;101872.63;5064081;28;45256;-37
2022/12/01 04:27:53;;;;;;;;;50.25;38.00;;;;;8.09;62.18;101881.31;5059554;28;75778;-37
2022/12/01 04:30:18;;;;;;;;;45.00;31.75;;;;;8.08;62.34;101883.06;5071369;28;63623;-37
2022/12/01 04:32:44;;;;;;;;;49.00;33.00;;;;;8.07;62.23;101883.91;5065521;28;65850;-37
2022/12/01 04:35:11;;;;;;;;;49.25;34.00;;;;;8.07;62.38;101885.66;5077126;27;45515;-37
2022/12/01 04:37:36;;;;;;;;;51.00;33.75;;;;;8.06;62.36;101892.63;5073992;27;45453;-38
2022/12/01 04:40:02;;;;;;;;;41.75;33.25;;;;;8.05;62.41;101887.41;5062560;28;45503;-37
2022/12/01 04:42:28;;;;;;;;;51.75;36.50;;;;;8.05;62.34;101890.88;5079451;27;45200;-37
2022/12/01 04:44:54;;;;;;;;;53.25;33.00;;;;;8.01;62.46;101883.91;5075675;27;45259;-37
2022/12/01 04:47:19;;;;;;;;;41.75;33.00;;;;;8.01;62.50;101878.72;5071273;27;46419;-35
2022/12/01 04:49:44;;;;;;;;;53.25;34.25;;;;;8.00;62.41;101887.38;5073769;27;68719;-35
2022/12/01 04:52:10;;;;;;;;;56.00;33.75;;;;;8.01;62.37;101885.66;5065249;27;45234;-35
2022/12/01 04:54:35;;;;;;;;;50.50;33.00;;;;;8.01;62.37;101883.91;5090995;27;45546;-35
2022/12/01 04:57:01;;;;;;;;;41.50;33.50;;;;;7.97;62.26;101890.00;5067832;27;69096;-36
2022/12/01 04:59:26;;;;;;;;;49.75;35.75;;;;;7.94;62.11;101888.25;5074751;27;45283;-36
2022/12/01 05:01:52;;;;;;;;;55.50;37.50;;;;;7.94;62.25;101890.84;5068976;27;45500;-36
2022/12/01 05:04:17;;;;;;;;;46.50;32.25;;;;;7.94;62.15;101879.56;5074412;27;45714;-36
2022/12/01 05:06:42;;;;;;;;;51.00;36.25;;;;;7.92;62.42;101892.59;5071356;28;46873;-36
2022/12/01 05:09:11;;;;;;;;;49.50;34.25;;;;;7.90;62.29;101893.47;5075159;27;45799;-36
2022/12/01 05:11:37;;;;;;;;;47.75;32.00;;;;;7.88;62.40;101896.06;5068992;27;45511;-36
2022/12/01 05:14:02;;;;;;;;;50.50;35.00;;;;;7.88;62.43;101889.94;5068922;27;45453;-36
2022/12/01 05:16:31;;;;;;;;;50.25;34.00;;;;;7.87;62.54;101889.09;5075513;27;52699;-36
2022/12/01 05:21:44;;;;;;;;;45.00;31.75;;;;;7.87;62.33;101885.63;5067126;28;45434;-35
2022/12/01 05:24:10;;;;;;;;;50.25;38.50;;;;;7.89;62.30;101889.97;5071047;27;45487;-36
2022/12/01 05:26:35;;;;;;;;;48.25;35.75;;;;;7.91;62.23;101890.81;5070372;28;45463;-36
2022/12/01 05:29:01;;;;;;;;;42.25;33.75;;;;;7.92;62.20;101887.38;5075176;27;45314;-36
2022/12/01 05:31:26;;;;;;;;;40.00;30.25;;;;;7.95;62.10;101886.50;5073821;28;45336;-36
2022/12/01 05:33:52;;;;;;;;;51.50;35.00;;;;;7.96;62.02;101885.63;5075634;27;73121;-36
2022/12/01 05:36:17;;;;;;;;;50.00;33.00;;;;;7.96;61.89;101891.72;5067567;27;68633;-36
2022/12/01 05:38:42;;;;;;;;;49.00;34.00;;;;;7.96;61.66;101891.72;5062240;28;57638;-36
2022/12/01 05:41:08;;;;;;;;;34.50;33.25;;;;;7.93;61.65;101894.34;5067455;27;64873;-36
2022/12/01 05:43:33;;;;;;;;;28.50;25.00;;;;;7.92;61.59;101887.38;5069993;27;66021;-36
2022/12/01 05:45:58;;;;;;;;;46.25;35.50;;;;;7.93;61.66;101899.56;5063184;28;68816;-36
2022/12/01 05:48:24;;;;;;;;;48.25;34.50;;;;;7.95;61.57;101896.91;5059930;27;45265;-36
2022/12/01 05:50:50;;;;;;;;;40.50;33.25;;;;;7.97;61.46;101898.69;5070648;27;45473;-37
2022/12/01 05:53:15;;;;;;;;;46.75;34.25;;;;;7.95;61.25;101895.22;5066528;27;45464;-37
2022/12/01 05:55:41;;;;;;;;;50.25;36.25;;;;;7.94;61.11;101914.31;5069016;27;46130;-36
2022/12/01 05:58:07;;;;;;;;;49.50;33.25;;;;;7.91;61.29;101911.69;5063972;27;56565;-36
2022/12/01 06:00:33;;;;;;;;;39.00;32.75;;;;;7.92;61.04;101912.56;5065051;28;45462;-36
2022/12/01 06:02:58;;;;;;;;;44.25;34.25;;;;;7.91;61.35;101918.63;5071351;27;45778;-36
2022/12/01 06:05:23;;;;;;;;;45.25;35.50;;;;;7.93;61.20;101907.38;5066018;28;75669;-36
2022/12/01 06:07:49;;;;;;;;;39.00;31.25;;;;;7.93;61.18;101911.69;5072566;28;45354;-36
2022/12/01 06:10:14;;;;;;;;;39.75;34.50;;;;;7.94;61.12;101898.66;5067127;28;63407;-36
2022/12/01 06:12:39;;;;;;;;;41.25;33.25;;;;;7.95;61.23;101908.25;5071412;27;61509;-37
2022/12/01 06:15:06;;;;;;;;;37.50;32.50;;;;;7.94;60.76;101898.66;5064031;27;71662;-36
2022/12/01 06:17:32;;;;;;;;;42.25;33.50;;;;;7.92;60.92;101905.63;5071995;27;45386;-36
2022/12/01 06:19:57;;;;;;;;;48.25;34.75;;;;;7.92;61.00;101913.44;5068698;27;45478;-37
2022/12/01 06:22:22;;;;;;;;;44.00;29.00;;;;;7.89;60.99;101908.19;5062750;28;60082;-36
2022/12/01 06:24:48;;;;;;;;;46.75;34.25;;;;;7.87;60.75;101904.72;5070624;27;55430;-36
2022/12/01 06:27:13;;;;;;;;;46.25;32.75;;;;;7.87;61.09;101903.88;5063635;28;68982;-36
2022/12/01 06:29:38;;;;;;;;;47.75;31.75;;;;;7.86;60.77;101910.81;5062711;28;45351;-36
2022/12/01 06:32:04;;;;;;;;;47.75;32.00;;;;;7.90;61.07;101904.75;5075610;27;59032;-36
2022/12/01 06:34:29;;;;;;;;;46.75;29.25;;;;;7.91;61.14;101905.59;5072960;27;45529;-36
2022/12/01 06:36:54;;;;;;;;;45.75;33.25;;;;;7.93;61.00;101909.97;5076837;27;67029;-36
2022/12/01 06:39:20;;;;;;;;;44.25;34.25;;;;;7.96;60.95;101907.34;5068103;27;55240;-36
2022/12/01 06:41:45;;;;;;;;;39.25;29.25;;;;;7.98;60.84;101910.88;5089468;27;72683;-36
2022/12/01 06:44:10;;;;;;;;;47.00;35.00;;;;;8.01;60.78;101916.94;5073472;27;63446;-36
2022/12/01 06:46:36;;;;;;;;;41.25;34.00;;;;;7.99;60.67;101914.34;5058340;28;45367;-36
2022/12/01 06:49:01;;;;;;;;;42.25;28.25;;;;;7.99;60.67;101920.41;5086533;27;66026;-36
2022/12/01 06:51:27;;;;;;;;;39.75;29.50;;;;;8.00;60.69;101916.06;5070465;28;45587;-36
2022/12/01 06:53:55;;;;;;;;;37.50;27.00;;;;;8.01;60.56;101914.34;5075567;27;46067;-36
2022/12/01 06:56:21;;;;;;;;;47.25;34.00;;;;;8.06;60.71;101918.69;5066636;28;50382;-36
2022/12/01 06:58:50;;;;;;;;;45.00;30.25;;;;;8.08;60.64;101918.69;5072754;27;45509;-36
2022/12/01 07:01:16;;;;;;;;;45.00;34.00;;;;;8.08;60.51;101924.78;5088014;27;45708;-37
2022/12/01 07:03:41;;;;;;;;;48.50;33.75;;;;;8.07;60.52;101936.06;5073235;27;47301;-37
2022/12/01 07:06:07;;;;;;;;;33.25;23.00;;;;;8.05;60.29;101940.41;5070998;28;45497;-37
2022/12/01 07:08:32;;;;;;;;;40.50;32.00;;;;;8.02;60.50;101935.19;5068634;28;45283;-37
2022/12/01 07:11:03;;;;;;;;;43.75;32.25;;;;;8.00;60.59;101936.91;5071765;27;45196;-37
2022/12/01 07:13:29;;;;;;;;;52.25;35.00;;;;;7.98;60.51;101947.34;5069997;27;45500;-37
2022/12/01 07:15:54;;;;;;;;;46.75;35.50;;;;;7.95;60.46;101946.44;5078375;28;75446;-37
2022/12/01 07:18:20;;;;;;;;;45.25;34.75;;;;;7.94;60.57;101950.78;5067851;28;64589;-37
2022/12/01 07:20:45;;;;;;;;;42.50;32.25;;;;;7.94;60.42;101945.59;5068359;28;73334;-37
2022/12/01 07:23:10;;;;;;;;;38.50;31.75;;;;;7.96;60.56;101953.41;5093215;27;47250;-37
2022/12/01 07:25:36;;;;;;;;;46.00;27.25;;;;;7.96;60.61;101959.47;5074988;27;45307;-37
2022/12/01 07:28:01;;;;;;;;;39.00;28.25;;;;;7.98;60.54;101956.88;5069649;28;45520;-37
2022/12/01 07:30:27;;;;;;;;;48.75;33.75;;;;;7.98;60.39;101962.09;5072689;28;67336;-37
2022/12/01 07:32:52;;;;;;;;;46.75;33.75;;;;;7.94;60.40;101963.81;5076995;27;46205;-37
2022/12/01 07:35:17;;;;;;;;;44.50;35.25;;;;;7.91;60.28;101956.00;5079162;27;63123;-37
2022/12/01 07:37:43;;;;;;;;;53.00;34.75;;;;;7.86;60.40;101965.56;5074730;27;69293;-37
2022/12/01 07:40:09;;;;;;;;;41.25;27.50;;;;;7.85;60.50;101965.53;5072828;27;61474;-37
2022/12/01 07:42:34;;;;;;;;;41.75;33.75;;;;;7.86;60.56;101969.88;5075752;28;46515;-37
2022/12/01 07:45:00;;;;;;;;;37.75;32.25;;;;;7.86;60.58;101972.47;5068792;27;45425;-37
2022/12/01 07:47:25;;;;;;;;;44.25;36.00;;;;;7.88;60.57;101978.56;5071841;27;45474;-37
2022/12/01 07:49:50;;;;;;;;;42.00;33.50;;;;;7.87;60.49;101982.91;5074010;27;59057;-37
2022/12/01 07:52:16;;;;;;;;;41.00;31.50;;;;;7.89;60.63;101985.53;5073685;27;68856;-37
2022/12/01 07:54:41;;;;;;;;;46.50;30.25;;;;;7.89;60.53;101986.41;5072718;27;45434;-36
2022/12/01 07:57:07;;;;;;;;;40.50;32.00;;;;;7.92;60.54;101985.56;5073238;27;63105;-36
2022/12/01 07:59:32;;;;;;;;;32.75;28.25;;;;;7.93;60.28;101992.50;5079141;27;45385;-36
2022/12/01 08:01:57;;;;;;;;;43.50;31.50;;;;;7.91;60.25;102005.50;5073793;27;46076;-37
2022/12/01 08:04:23;;;;;;;;;33.75;29.25;;;;;7.86;60.49;101994.22;5066171;27;56785;-36
2022/12/01 08:06:48;;;;;;;;;38.25;27.75;;;;;7.86;60.36;101999.44;5064948;27;60662;-37
2022/12/01 08:09:13;;;;;;;;;42.25;30.00;;;;;7.85;60.47;102009.84;5071464;27;45340;-36
2022/12/01 08:11:39;;;;;;;;;41.75;35.25;;;;;7.83;60.36;101993.34;5077272;27;56048;-36
2022/12/01 08:14:04;;;;;;;;;40.75;27.50;;;;;7.81;60.72;102006.34;5079094;27;70111;-37
2022/12/01 08:16:30;;;;;;;;;42.00;30.25;;;;;7.82;60.96;102017.66;5073759;27;45362;-37
2022/12/01 08:18:55;;;;;;;;;40.75;33.25;;;;;7.79;60.68;102008.94;5084070;27;45433;-37
2022/12/01 08:21:22;;;;;;;;;37.25;26.75;;;;;7.78;60.58;102012.41;5079812;27;74496;-36
2022/12/01 08:23:50;;;;;;;;;41.50;32.00;;;;;7.79;61.00;102018.47;5080892;27;45331;-36
2022/12/01 08:26:17;;;;;;;;;47.00;32.00;;;;;7.80;60.70;102017.63;5081184;27;45377;-37
2022/12/01 08:28:43;;;;;;;;;33.50;24.25;;;;;7.83;60.66;102014.19;5073983;27;45489;-37
2022/12/01 08:31:12;;;;;;;;;40.75;30.75;;;;;7.81;60.73;102016.78;5075509;27;45444;-36
2022/12/01 08:33:37;;;;;;;;;41.50;29.75;;;;;7.80;60.51;102022.84;5079050;28;45526;-36
2022/12/01 08:36:04;;;;;;;;;41.50;27.25;;;;;7.79;60.82;102018.47;5081158;27;45441;-37
2022/12/01 08:38:29;;;;;;;;;35.25;29.75;;;;;7.79;60.92;102016.78;5074671;27;45331;-37
2022/12/01 08:41:01;;;;;;;;;37.00;26.75;;;;;7.82;60.75;102017.66;5063508;27;45917;-37
2022/12/01 08:43:27;;;;;;;;;38.75;26.25;;;;;7.82;60.74;102018.50;5096058;27;45354;-37
2022/12/01 08:45:52;;;;;;;;;37.00;26.75;;;;;7.81;60.71;102008.97;5080830;27;45278;-37
2022/12/01 08:48:17;;;;;;;;;42.00;27.25;;;;;7.82;60.98;102023.72;5080285;27;45426;-37
2022/12/01 08:50:43;;;;;;;;;30.25;26.75;;;;;7.80;60.82;102017.63;5073409;27;53297;-37
2022/12/01 08:53:08;;;;;;;;;41.25;27.50;;;;;7.82;60.79;102020.25;5072796;27;69208;-37
2022/12/01 08:55:33;;;;;;;;;32.50;25.50;;;;;7.84;60.84;102026.34;5073422;27;61167;-37
2022/12/01 08:57:59;;;;;;;;;26.25;23.75;;;;;7.81;60.90;102014.19;5078708;28;65892;-37
2022/12/01 09:00:24;;;;;;;;;35.75;24.75;;;;;7.89;60.78;102028.09;5075690;27;62256;-37
2022/12/01 09:02:49;;;;;;;;;34.75;27.00;;;;;7.91;60.54;102034.19;5079262;27;45383;-37
2022/12/01 09:05:15;;;;;;;;;30.25;23.25;;;;;7.91;60.65;102033.31;5078623;28;45416;-37
2022/12/01 09:07:41;;;;;;;;;29.25;24.50;;;;;7.93;60.64;102023.75;5073973;27;65374;-37
2022/12/01 09:10:07;;;;;;;;;47.75;27.50;;;;;7.96;60.49;102029.00;5072822;28;45425;-37
2022/12/01 09:12:33;;;;;;;;;39.50;26.00;;;;;7.95;60.67;102025.53;5091890;27;46116;-37
2022/12/01 09:14:58;;;;;;;;;33.75;24.25;;;;;7.97;60.55;102017.72;5072603;28;54834;-42
2022/12/01 09:17:23;;;;;;;;;37.75;28.00;;;;;7.97;60.54;102018.59;5079760;28;45394;-38
2022/12/01 09:19:49;;;;;;;;;32.25;25.00;;;;;8.02;60.60;102018.63;5079563;27;55993;-38
2022/12/01 09:22:14;;;;;;;;;33.75;26.50;;;;;8.06;60.53;102024.72;5066906;27;45267;-38
2022/12/01 09:24:39;;;;;;;;;36.50;24.75;;;;;8.11;60.43;102018.66;5078468;27;60303;-37
2022/12/01 09:27:05;;;;;;;;;28.00;20.00;;;;;8.13;60.12;102019.53;5071776;27;68004;-38
2022/12/01 09:29:31;;;;;;;;;37.00;30.00;;;;;8.15;60.42;102022.13;5062687;28;47058;-38
2022/12/01 09:31:58;;;;;;;;;31.25;23.25;;;;;8.19;60.26;102021.28;5068743;28;45308;-38
2022/12/01 09:34:24;;;;;;;;;38.00;28.25;;;;;8.18;60.02;102025.63;5066806;27;45318;-38
2022/12/01 09:36:49;;;;;;;;;38.25;28.00;;;;;8.15;59.96;102017.78;5075860;27;45440;-38
2022/12/01 09:39:17;;;;;;;;;33.50;28.75;;;;;8.16;59.97;102023.88;5065697;27;67962;-38
2022/12/01 09:41:53;;;;;;;;;38.50;27.50;;;;;8.12;60.06;102029.94;5077317;28;45809;-37
2022/12/01 09:44:32;;;;;;;;;32.75;26.00;;;;;8.09;60.28;102016.88;5066145;27;45287;-37
2022/12/01 09:47:13;;;;;;;;;25.50;19.25;;;;;8.10;60.21;102029.06;5066501;27;45408;-37
2022/12/01 09:49:53;;;;;;;;;33.50;23.75;;;;;8.08;60.09;102028.19;5070155;28;45377;-37
2022/12/01 09:52:21;;;;;;;;;42.00;30.75;;;;;8.10;60.18;102026.47;5081778;27;45943;-37
2022/12/01 09:54:46;;;;;;;;;36.25;18.00;;;;;8.12;60.11;102024.72;5079116;27;45393;-36
2022/12/01 09:57:17;;;;;;;;;30.50;25.50;;;;;8.16;59.95;102026.47;5059197;27;45374;-37
2022/12/01 09:59:42;;;;;;;;;32.00;21.50;;;;;8.18;59.96;102015.19;5060041;28;46288;-37
2022/12/01 10:02:35;;;;;;;;;36.00;27.00;;;;;8.21;59.78;102026.50;5075497;28;45219;-37
2022/12/01 10:05:04;;;;;;;;;32.75;21.75;;;;;8.18;59.60;102030.84;5083814;27;45423;-37
2022/12/01 10:07:34;;;;;;;;;36.25;24.75;;;;;8.17;59.86;102031.69;5071626;27;45320;-37
2022/12/01 10:10:29;;;;;;;;;36.25;27.00;;;;;8.20;59.86;102023.03;5079564;27;45264;-37
2022/12/01 10:12:54;;;;;;;;;30.50;26.00;;;;;8.23;59.97;102014.34;5076694;27;45231;-37
2022/12/01 10:15:49;;;;;;;;;35.75;25.50;;;;;8.28;59.59;102013.47;5087630;27;45493;-37
2022/12/01 10:18:39;;;;;;;;;31.00;19.75;;;;;8.29;59.85;102016.97;5080753;28;45275;-37
2022/12/01 10:21:32;;;;;;;;;35.00;25.25;;;;;8.29;59.41;102014.38;5082975;27;46269;-37
2022/12/01 10:24:25;;;;;;;;;28.25;21.25;;;;;8.29;59.50;102011.75;5076796;27;45815;-37
2022/12/01 10:27:15;;;;;;;;;27.25;21.50;;;;;8.29;59.29;102016.97;5076804;27;45315;-37
2022/12/01 10:30:02;;;;;;;;;35.00;25.25;;;;;8.30;59.18;102010.88;5082461;27;45288;-36
2022/12/01 10:32:48;;;;;;;;;32.00;23.25;;;;;8.31;59.52;102008.28;5072030;28;45358;-37
2022/12/01 10:35:15;;;;;;;;;32.50;23.00;;;;;8.38;59.49;102010.91;5075644;27;45228;-37
2022/12/01 10:37:42;;;;;;;;;29.50;25.25;;;;;8.42;59.42;102003.13;5081673;27;45271;-36
2022/12/01 10:40:14;;;;;;;;;30.50;23.25;;;;;8.47;59.48;101998.78;5091903;27;45488;-37
2022/12/01 10:42:47;;;;;;;;;35.00;23.50;;;;;8.52;59.28;102004.88;5097802;27;46147;-37
2022/12/01 10:45:20;;;;;;;;;26.50;20.00;;;;;8.50;58.94;102006.63;5053480;28;45805;-37
2022/12/01 10:48:07;;;;;;;;;35.75;28.50;;;;;8.47;58.90;101998.78;5092474;27;45456;-37
2022/12/01 10:50:33;;;;;;;;;32.50;24.00;;;;;8.42;58.90;101995.28;5072871;27;45517;-37
2022/12/01 10:52:59;;;;;;;;;27.25;21.50;;;;;8.39;59.04;101991.78;5081208;27;46156;-37
2022/12/01 10:55:34;;;;;;;;;28.50;24.00;;;;;8.38;58.93;101992.66;5076801;27;66176;-37
2022/12/01 10:58:04;;;;;;;;;26.50;24.00;;;;;8.38;59.26;101995.28;5071057;27;45346;-37
2022/12/01 11:00:37;;;;;;;;;35.75;26.00;;;;;8.38;59.11;101985.69;5072203;27;45414;-37
2022/12/01 11:03:03;;;;;;;;;29.50;24.00;;;;;8.40;59.35;101988.31;5080884;27;45536;-37
2022/12/01 11:05:38;;;;;;;;;29.75;24.50;;;;;8.45;59.38;101974.44;5081546;27;68271;-37
2022/12/01 11:08:03;;;;;;;;;33.00;25.00;;;;;8.48;59.06;101978.78;5080141;27;45306;-37
2022/12/01 11:10:30;;;;;;;;;40.25;25.00;;;;;8.52;59.27;101977.94;5082511;27;45330;-37
2022/12/01 11:13:18;;;;;;;;;28.75;21.25;;;;;8.52;58.43;101978.81;5080800;27;45552;-37
2022/12/01 11:15:59;;;;;;;;;31.25;27.00;;;;;8.51;58.57;101986.63;5087031;27;45799;-37
2022/12/01 11:18:34;;;;;;;;;32.25;22.50;;;;;8.45;58.11;101982.25;5075888;28;45322;-37
2022/12/01 11:21:11;;;;;;;;;26.50;25.50;;;;;8.42;58.24;101978.75;5074753;27;45439;-37
2022/12/01 11:23:43;;;;;;;;;29.25;21.25;;;;;8.41;58.57;101977.88;5071228;27;46240;-37
2022/12/01 11:26:14;;;;;;;;;29.75;27.00;;;;;8.43;58.68;101970.97;5081984;27;45853;-37
2022/12/01 11:28:48;;;;;;;;;33.75;26.75;;;;;8.48;58.78;101979.66;5071703;27;45236;-37
2022/12/01 11:31:14;;;;;;;;;26.00;23.00;;;;;8.51;58.82;101976.19;5076247;28;45483;-37
2022/12/01 11:33:47;;;;;;;;;28.50;20.00;;;;;8.49;58.79;101981.41;5072424;28;66758;-37